Time;durP1;ratioP1;P1;durP2;ratioP2;P2;SDS_P1;SDS_P2;PMS_P1;PMS_P2;Temp;Humidity;BMP_temperature;BMP_pressure;BME280_temperature;BME280_humidity;BME280_pressure;Samples;Min_cycle;Max_cycle;Signal;HPM_P1;HPM_P2
2022/10/24 00:00:57;;;;;;;10.73;4.30;;;15.60;99.90;;;;;;5072316;28;20946;-66
2022/10/24 00:03:25;;;;;;;8.20;4.00;;;15.60;99.90;;;;;;5071267;28;20633;-69
2022/10/24 00:05:53;;;;;;;10.40;4.57;;;15.70;99.90;;;;;;5071684;28;20618;-65
2022/10/24 00:08:23;;;;;;;10.27;5.10;;;15.70;99.90;;;;;;5072997;28;20637;-66
2022/10/24 00:10:50;;;;;;;12.77;5.50;;;15.60;99.90;;;;;;5072970;28;20606;-67
2022/10/24 00:13:19;;;;;;;14.93;4.27;;;15.50;99.90;;;;;;5072891;28;20654;-66
2022/10/24 00:15:49;;;;;;;13.63;4.90;;;15.50;99.90;;;;;;5072766;28;20610;-65
2022/10/24 00:18:17;;;;;;;11.57;5.20;;;15.30;99.90;;;;;;5072928;28;20606;-66
2022/10/24 00:20:45;;;;;;;8.97;4.03;;;15.20;99.90;;;;;;5072991;28;20618;-66
2022/10/24 00:23:13;;;;;;;5.43;3.20;;;15.00;99.90;;;;;;5079647;28;20626;-66
2022/10/24 00:25:42;;;;;;;10.23;3.90;;;14.80;99.90;;;;;;5093303;28;20617;-66
2022/10/24 00:28:10;;;;;;;9.33;4.13;;;14.70;99.90;;;;;;5092326;28;21196;-67
2022/10/24 00:30:38;;;;;;;12.17;4.87;;;14.60;99.90;;;;;;5088534;28;20641;-66
2022/10/24 00:33:06;;;;;;;9.67;4.50;;;14.50;99.90;;;;;;5075885;28;20654;-66
2022/10/24 00:35:35;;;;;;;17.40;4.20;;;14.50;99.90;;;;;;5076357;28;20595;-66
2022/10/24 00:38:03;;;;;;;9.40;5.10;;;14.40;99.90;;;;;;5092556;28;20609;-66
2022/10/24 00:40:31;;;;;;;11.67;4.10;;;14.40;99.90;;;;;;5092628;28;20662;-66
2022/10/24 00:43:00;;;;;;;14.67;5.37;;;14.30;99.90;;;;;;5092944;28;20608;-66
2022/10/24 00:45:40;;;;;;;9.60;5.17;;;14.20;99.90;;;;;;5092805;28;20616;-66
2022/10/24 00:48:17;;;;;;;10.50;4.90;;;14.10;99.90;;;;;;5085944;28;20930;-66
2022/10/24 00:50:46;;;;;;;14.33;4.83;;;14.00;99.90;;;;;;5073442;28;20552;-66
2022/10/24 00:53:16;;;;;;;12.87;5.00;;;14.00;99.90;;;;;;5088702;28;20975;-66
2022/10/24 00:55:47;;;;;;;7.07;4.60;;;13.90;99.90;;;;;;5092299;28;20608;-66
2022/10/24 00:58:19;;;;;;;14.57;5.27;;;13.80;99.90;;;;;;5092460;28;20615;-66
2022/10/24 01:00:47;;;;;;;15.83;4.83;;;13.80;99.90;;;;;;5092164;28;20588;-66
2022/10/24 01:03:15;;;;;;;13.00;5.10;;;13.70;99.90;;;;;;5088807;28;20612;-66
2022/10/24 01:05:58;;;;;;;8.83;4.70;;;13.60;99.90;;;;;;5074016;28;21068;-66
2022/10/24 01:08:34;;;;;;;10.50;5.43;;;13.50;99.90;;;;;;5072461;28;20957;-66
2022/10/24 01:11:14;;;;;;;7.57;5.40;;;13.50;99.90;;;;;;5088812;28;20568;-67
2022/10/24 01:13:51;;;;;;;9.83;5.50;;;13.60;99.90;;;;;;5092430;28;20658;-66
2022/10/24 01:16:27;;;;;;;11.33;4.83;;;13.50;99.90;;;;;;5092281;28;20561;-66
2022/10/24 01:19:03;;;;;;;12.30;5.97;;;13.50;99.90;;;;;;5090738;28;20639;-66
2022/10/24 01:21:35;;;;;;;17.57;6.40;;;13.50;99.90;;;;;;5080328;28;20598;-66
2022/10/24 01:24:44;;;;;;;20.13;5.60;;;13.40;99.90;;;;;;5074808;28;20608;-66
2022/10/24 01:27:47;;;;;;;10.30;5.20;;;13.40;99.90;;;;;;5088428;28;20630;-66
2022/10/24 01:30:18;;;;;;;12.07;5.80;;;13.30;99.90;;;;;;5067831;28;20637;-66
2022/10/24 01:32:54;;;;;;;8.57;5.80;;;13.30;99.90;;;;;;5071441;28;20610;-66
2022/10/24 01:35:34;;;;;;;13.10;6.07;;;13.30;99.90;;;;;;5071593;28;20606;-66
2022/10/24 01:38:13;;;;;;;14.10;6.37;;;13.20;99.90;;;;;;5071734;28;20613;-66
2022/10/24 01:40:49;;;;;;;16.60;5.00;;;13.20;99.90;;;;;;5071004;28;20609;-66
2022/10/24 01:43:22;;;;;;;9.60;4.97;;;13.20;99.90;;;;;;5078375;28;21163;-66
2022/10/24 01:45:56;;;;;;;13.50;6.03;;;13.30;99.90;;;;;;5071978;28;20948;-66
2022/10/24 01:48:25;;;;;;;10.33;5.50;;;13.30;99.90;;;;;;5079071;28;20564;-66
2022/10/24 01:50:56;;;;;;;16.07;6.37;;;13.20;99.90;;;;;;5090581;28;20612;-66
2022/10/24 01:53:28;;;;;;;11.40;5.97;;;13.20;99.90;;;;;;5083226;28;20671;-66
2022/10/24 01:55:57;;;;;;;13.87;5.77;;;13.20;99.90;;;;;;5071915;28;20549;-66
2022/10/24 01:58:25;;;;;;;11.53;5.70;;;13.20;99.90;;;;;;5071173;28;20601;-66
2022/10/24 02:00:59;;;;;;;25.80;7.73;;;13.20;99.90;;;;;;5072473;28;20633;-66
2022/10/24 02:03:31;;;;;;;19.50;5.70;;;13.20;99.90;;;;;;5072317;28;20583;-66
2022/10/24 02:06:03;;;;;;;9.20;6.17;;;13.20;99.90;;;;;;5074831;28;20953;-66
2022/10/24 02:08:35;;;;;;;8.87;5.80;;;13.20;99.90;;;;;;5082768;28;20948;-66
2022/10/24 02:11:06;;;;;;;14.87;6.20;;;13.20;99.90;;;;;;5081505;28;20638;-66
2022/10/24 02:13:41;;;;;;;11.03;6.53;;;13.20;99.90;;;;;;5075091;28;20673;-66
2022/10/24 02:16:10;;;;;;;10.03;5.13;;;13.20;99.90;;;;;;5075424;28;20943;-66
2022/10/24 02:18:40;;;;;;;9.87;5.60;;;13.20;99.90;;;;;;5074308;28;20683;-66
2022/10/24 02:21:17;;;;;;;9.77;4.87;;;13.20;99.90;;;;;;5092228;28;20945;-66
2022/10/24 02:23:52;;;;;;;8.67;5.33;;;13.20;99.90;;;;;;5094531;28;20605;-66
2022/10/24 02:26:26;;;;;;;9.60;5.40;;;13.20;99.90;;;;;;5095506;28;20651;-66
2022/10/24 02:29:00;;;;;;;13.30;5.20;;;13.20;99.90;;;;;;5075772;28;20989;-66
2022/10/24 02:31:33;;;;;;;9.17;5.17;;;13.20;99.90;;;;;;5085796;28;20602;-66
2022/10/24 02:34:05;;;;;;;11.60;5.87;;;13.20;99.90;;;;;;5074577;28;20600;-66
2022/10/24 02:36:35;;;;;;;8.00;5.67;;;13.30;99.90;;;;;;5090508;28;20592;-66
2022/10/24 02:39:06;;;;;;;10.10;5.37;;;13.30;99.90;;;;;;5093684;28;20604;-66
2022/10/24 02:41:37;;;;;;;11.53;5.53;;;13.30;99.90;;;;;;5094549;28;20587;-66
2022/10/24 02:44:06;;;;;;;12.23;5.47;;;13.30;99.90;;;;;;5094947;28;20600;-66
2022/10/24 02:46:36;;;;;;;17.43;6.43;;;13.30;99.90;;;;;;5094085;28;20673;-66
2022/10/24 02:49:05;;;;;;;8.40;4.80;;;13.30;99.90;;;;;;5074494;28;20576;-66
2022/10/24 02:51:37;;;;;;;11.03;4.90;;;13.30;99.90;;;;;;5074765;28;21224;-66
2022/10/24 02:54:06;;;;;;;11.53;5.37;;;13.30;99.90;;;;;;5073909;28;21036;-66
2022/10/24 02:56:35;;;;;;;9.70;4.63;;;13.30;99.90;;;;;;5073421;28;21246;-66
2022/10/24 02:59:03;;;;;;;21.93;5.10;;;13.50;99.90;;;;;;5089670;28;20621;-66
2022/10/24 03:01:31;;;;;;;5.47;4.43;;;13.70;99.90;;;;;;5081338;28;20608;-66
2022/10/24 03:04:01;;;;;;;12.07;5.47;;;13.90;99.90;;;;;;5090736;28;20632;-66
2022/10/24 03:06:28;;;;;;;12.50;4.97;;;13.90;99.90;;;;;;5093668;28;20621;-66
2022/10/24 03:08:56;;;;;;;9.03;4.50;;;14.10;99.90;;;;;;5093919;28;20699;-66
2022/10/24 03:11:24;;;;;;;10.40;4.80;;;14.20;99.90;;;;;;5093262;28;20626;-66
2022/10/24 03:13:52;;;;;;;22.57;5.70;;;14.20;99.90;;;;;;5093926;28;20656;-67
2022/10/24 03:16:20;;;;;;;14.80;5.07;;;14.30;99.90;;;;;;5094142;28;20837;-66
2022/10/24 03:18:48;;;;;;;7.73;4.90;;;14.30;99.90;;;;;;5093720;28;20613;-66
2022/10/24 03:21:18;;;;;;;8.83;4.50;;;14.20;99.90;;;;;;5093768;28;20580;-66
2022/10/24 03:23:46;;;;;;;8.93;4.07;;;14.20;99.90;;;;;;5092703;28;20621;-66
2022/10/24 03:26:14;;;;;;;8.77;4.67;;;14.20;99.90;;;;;;5092753;28;20972;-66
2022/10/24 03:28:42;;;;;;;12.53;4.47;;;14.30;99.90;;;;;;5093878;28;20597;-66
2022/10/24 03:31:10;;;;;;;8.73;4.40;;;14.40;99.90;;;;;;5089498;28;20927;-66
2022/10/24 03:33:39;;;;;;;11.93;4.13;;;14.50;99.90;;;;;;5076566;28;20621;-66
2022/10/24 03:36:07;;;;;;;11.73;3.30;;;14.60;99.90;;;;;;5080914;28;20664;-66
2022/10/24 03:38:36;;;;;;;8.83;3.60;;;14.70;99.90;;;;;;5084595;28;20984;-66
2022/10/24 03:41:05;;;;;;;5.43;3.73;;;14.80;99.90;;;;;;5073181;28;20602;-66
2022/10/24 03:43:33;;;;;;;4.93;3.50;;;14.70;99.90;;;;;;5088834;28;21217;-66
2022/10/24 03:46:01;;;;;;;8.07;3.60;;;14.70;99.90;;;;;;5090349;28;20618;-66
2022/10/24 03:48:29;;;;;;;13.07;4.10;;;14.50;99.90;;;;;;5083050;28;20974;-66
2022/10/24 03:50:57;;;;;;;12.63;4.17;;;14.40;99.90;;;;;;5073302;28;20676;-67
2022/10/24 03:53:25;;;;;;;6.67;4.13;;;14.30;99.90;;;;;;5073299;28;20642;-66
2022/10/24 03:55:55;;;;;;;8.90;4.20;;;14.20;99.90;;;;;;5092949;28;21218;-66
2022/10/24 03:58:23;;;;;;;14.83;4.50;;;14.10;99.90;;;;;;5093919;28;20548;-66
2022/10/24 04:00:51;;;;;;;7.53;3.87;;;14.00;99.90;;;;;;5092925;28;20617;-67
2022/10/24 04:03:19;;;;;;;5.00;4.10;;;14.00;99.90;;;;;;5092711;28;20613;-66
2022/10/24 04:05:47;;;;;;;11.40;4.20;;;14.00;99.90;;;;;;5090699;28;20588;-66
2022/10/24 04:08:15;;;;;;;15.67;5.30;;;14.00;99.90;;;;;;5073307;28;20613;-66
2022/10/24 04:10:43;;;;;;;8.90;4.00;;;14.00;99.90;;;;;;5073112;28;20958;-66
2022/10/24 04:13:13;;;;;;;7.37;4.10;;;13.90;99.90;;;;;;5072523;28;20618;-66
2022/10/24 04:15:41;;;;;;;8.60;4.47;;;13.90;99.90;;;;;;5072829;28;20636;-66
2022/10/24 04:18:09;;;;;;;6.23;4.13;;;13.80;99.90;;;;;;5073354;28;20653;-67
2022/10/24 04:20:37;;;;;;;18.43;4.87;;;13.80;99.90;;;;;;5073120;28;20618;-66
2022/10/24 04:23:05;;;;;;;9.60;4.23;;;13.80;99.90;;;;;;5072211;28;20631;-66
2022/10/24 04:25:33;;;;;;;13.00;4.30;;;13.80;99.90;;;;;;5072780;28;20639;-66
2022/10/24 04:28:01;;;;;;;9.90;4.13;;;13.80;99.90;;;;;;5072080;28;20611;-66
2022/10/24 04:30:31;;;;;;;12.57;3.93;;;13.80;99.90;;;;;;5073353;28;20610;-66
2022/10/24 04:32:59;;;;;;;10.90;6.07;;;13.80;99.90;;;;;;5072475;28;20614;-68
2022/10/24 04:35:27;;;;;;;8.43;4.30;;;13.90;99.90;;;;;;5073105;28;20654;-66
2022/10/24 04:37:55;;;;;;;11.30;4.10;;;13.90;99.90;;;;;;5072019;28;21015;-66
2022/10/24 04:40:23;;;;;;;14.57;4.50;;;14.20;99.90;;;;;;5072655;28;21175;-66
2022/10/24 04:42:51;;;;;;;9.63;4.10;;;14.40;99.90;;;;;;5073541;28;20610;-66
2022/10/24 04:45:19;;;;;;;12.80;4.07;;;14.70;99.90;;;;;;5093146;28;20632;-66
2022/10/24 04:47:49;;;;;;;15.30;3.97;;;14.90;99.90;;;;;;5092138;28;20625;-66
2022/10/24 04:50:17;;;;;;;14.47;3.37;;;14.90;99.90;;;;;;5073457;28;20645;-66
2022/10/24 04:52:45;;;;;;;16.13;3.63;;;14.80;99.90;;;;;;5075396;28;20645;-66
2022/10/24 04:55:13;;;;;;;13.30;5.00;;;14.90;99.90;;;;;;5091903;28;21196;-66
2022/10/24 04:57:41;;;;;;;14.67;4.33;;;14.90;99.90;;;;;;5099068;28;20646;-67
2022/10/24 05:00:09;;;;;;;11.40;3.67;;;14.90;99.90;;;;;;5081093;28;20636;-66
2022/10/24 05:02:37;;;;;;;17.63;4.17;;;14.90;99.90;;;;;;5073511;28;21021;-66
2022/10/24 05:05:07;;;;;;;10.13;4.60;;;14.90;99.90;;;;;;5071495;28;20613;-66
2022/10/24 05:07:35;;;;;;;13.03;5.17;;;14.90;99.90;;;;;;5085106;28;21234;-66
2022/10/24 05:10:03;;;;;;;18.73;5.53;;;15.00;99.90;;;;;;5092621;28;20618;-67
2022/10/24 05:12:31;;;;;;;12.63;4.27;;;14.90;99.90;;;;;;5092352;28;20595;-66
2022/10/24 05:14:59;;;;;;;9.03;4.30;;;14.90;99.90;;;;;;5092704;28;20591;-66
2022/10/24 05:17:27;;;;;;;10.70;4.10;;;14.90;99.90;;;;;;5093017;28;20612;-67
2022/10/24 05:19:55;;;;;;;19.70;4.10;;;14.80;99.90;;;;;;5076435;28;20619;-66
2022/10/24 05:22:25;;;;;;;11.73;3.77;;;14.80;99.90;;;;;;5091001;28;20656;-67
2022/10/24 05:24:53;;;;;;;9.73;3.70;;;14.90;99.90;;;;;;5091962;28;20618;-66
2022/10/24 05:27:23;;;;;;;12.60;3.90;;;14.90;99.90;;;;;;5090116;28;20943;-66
2022/10/24 05:29:51;;;;;;;6.67;4.27;;;14.90;99.90;;;;;;5077602;28;21003;-66
2022/10/24 05:32:20;;;;;;;12.00;3.80;;;14.90;99.90;;;;;;5083846;28;20601;-66
2022/10/24 05:34:48;;;;;;;14.23;5.33;;;14.90;99.90;;;;;;5073905;28;20584;-66
2022/10/24 05:37:16;;;;;;;21.10;10.43;;;14.90;99.90;;;;;;5080931;28;20628;-66
2022/10/24 05:39:46;;;;;;;15.60;6.90;;;14.90;99.90;;;;;;5083289;28;20663;-66
2022/10/24 05:42:14;;;;;;;15.07;5.43;;;14.80;99.90;;;;;;5085749;28;20613;-67
2022/10/24 05:44:42;;;;;;;19.33;5.23;;;14.80;99.90;;;;;;5083775;28;20618;-67
2022/10/24 05:47:09;;;;;;;12.63;5.37;;;14.70;99.90;;;;;;5084015;28;21183;-67
2022/10/24 05:49:37;;;;;;;13.93;3.95;;;14.70;99.90;;;;;;5082633;28;20759;-67
2022/10/24 05:52:06;;;;;;;17.63;7.43;;;14.90;99.90;;;;;;5082653;28;20560;-67
2022/10/24 05:54:34;;;;;;;9.40;4.23;;;15.00;99.90;;;;;;5083613;28;20612;-66
2022/10/24 05:57:03;;;;;;;11.13;3.90;;;15.00;99.90;;;;;;5081511;28;20681;-68
2022/10/24 05:59:31;;;;;;;13.60;5.07;;;15.00;99.90;;;;;;5084267;28;21154;-67
2022/10/24 06:01:59;;;;;;;9.60;4.43;;;14.90;99.90;;;;;;5083245;28;20656;-67
2022/10/24 06:04:27;;;;;;;8.97;3.70;;;14.80;99.90;;;;;;5082373;28;20611;-66
2022/10/24 06:06:55;;;;;;;17.87;4.37;;;14.80;99.90;;;;;;5082856;28;20633;-64
2022/10/24 06:09:23;;;;;;;13.10;4.70;;;14.70;99.90;;;;;;5085188;28;20632;-66
2022/10/24 06:11:51;;;;;;;13.53;4.23;;;14.70;99.90;;;;;;5085678;28;20610;-66
2022/10/24 06:14:20;;;;;;;9.50;4.80;;;14.60;99.90;;;;;;5086154;28;20618;-65
2022/10/24 06:16:48;;;;;;;9.80;4.40;;;14.60;99.90;;;;;;5084518;28;20661;-66
2022/10/24 06:19:17;;;;;;;7.57;4.17;;;14.50;99.90;;;;;;5082496;28;20620;-66
2022/10/24 06:21:45;;;;;;;9.97;4.20;;;14.50;99.90;;;;;;5082316;28;20637;-66
2022/10/24 06:24:13;;;;;;;11.83;6.70;;;14.50;99.90;;;;;;5091115;28;20869;-65
2022/10/24 06:26:41;;;;;;;19.10;4.97;;;14.50;99.90;;;;;;5092019;28;21194;-66
2022/10/24 06:29:09;;;;;;;13.20;4.13;;;14.50;99.90;;;;;;5075515;28;20633;-65
2022/10/24 06:31:38;;;;;;;15.97;4.93;;;14.60;99.90;;;;;;5078703;28;20985;-63
2022/10/24 06:34:06;;;;;;;8.97;4.87;;;14.70;99.90;;;;;;5090339;28;20609;-64
2022/10/24 06:36:35;;;;;;;17.33;4.40;;;14.70;99.90;;;;;;5090231;28;20661;-64
2022/10/24 06:39:03;;;;;;;11.20;4.10;;;14.70;99.90;;;;;;5076866;28;21143;-64
2022/10/24 06:41:31;;;;;;;10.97;3.83;;;14.70;99.90;;;;;;5082779;28;20629;-65
2022/10/24 06:43:59;;;;;;;10.37;4.57;;;14.80;99.90;;;;;;5073838;28;21188;-64
2022/10/24 06:46:27;;;;;;;13.37;3.77;;;14.70;99.90;;;;;;5074186;28;20613;-64
2022/10/24 06:48:57;;;;;;;10.20;4.57;;;14.80;99.90;;;;;;5089931;28;21040;-63
2022/10/24 06:51:25;;;;;;;12.27;4.40;;;14.80;99.90;;;;;;5086245;28;20626;-65
2022/10/24 06:53:53;;;;;;;11.10;4.50;;;14.90;99.90;;;;;;5079884;28;21237;-65
2022/10/24 06:56:21;;;;;;;9.70;5.00;;;14.90;99.90;;;;;;5095183;28;20672;-66
2022/10/24 06:58:49;;;;;;;10.73;4.30;;;14.80;99.90;;;;;;5093972;28;20602;-65
2022/10/24 07:01:19;;;;;;;13.03;4.37;;;14.80;99.90;;;;;;5093823;28;20613;-65
2022/10/24 07:03:47;;;;;;;8.53;4.27;;;14.90;99.90;;;;;;5093176;28;20617;-65
2022/10/24 07:06:19;;;;;;;10.57;4.47;;;15.00;99.90;;;;;;5091939;28;20618;-66
2022/10/24 07:08:47;;;;;;;11.07;4.03;;;15.00;99.90;;;;;;5092785;28;20585;-65
2022/10/24 07:11:15;;;;;;;9.97;4.47;;;15.00;99.90;;;;;;5091277;28;20656;-65
2022/10/24 07:13:43;;;;;;;12.73;3.77;;;15.00;99.90;;;;;;5086595;28;20654;-65
2022/10/24 07:16:11;;;;;;;8.33;4.57;;;15.10;99.90;;;;;;5079263;28;20657;-66
2022/10/24 07:18:39;;;;;;;8.33;3.90;;;15.10;99.90;;;;;;5080765;28;20614;-66
2022/10/24 07:21:10;;;;;;;6.03;3.03;;;15.10;99.90;;;;;;5082756;28;21261;-65
2022/10/24 07:23:39;;;;;;;9.30;4.07;;;15.10;99.90;;;;;;5092158;28;20576;-65
2022/10/24 07:26:09;;;;;;;12.30;4.67;;;15.20;99.90;;;;;;5092551;28;20643;-65
2022/10/24 07:28:39;;;;;;;12.53;4.10;;;15.20;99.90;;;;;;5092154;28;20606;-64
2022/10/24 07:31:07;;;;;;;16.27;5.17;;;15.20;99.90;;;;;;5091591;28;20629;-65
2022/10/24 07:33:38;;;;;;;11.10;4.50;;;15.20;99.90;;;;;;5091092;28;20648;-66
2022/10/24 07:36:06;;;;;;;9.20;3.93;;;15.30;99.90;;;;;;5083949;28;20994;-66
2022/10/24 07:38:34;;;;;;;8.03;3.87;;;15.30;99.90;;;;;;5088329;28;20621;-65
2022/10/24 07:41:05;;;;;;;8.90;3.73;;;15.30;99.90;;;;;;5091106;28;20607;-65
2022/10/24 07:43:33;;;;;;;9.23;3.70;;;15.40;99.90;;;;;;5087117;28;20617;-65
2022/10/24 07:46:06;;;;;;;12.63;3.83;;;15.40;99.90;;;;;;5074740;28;20990;-64
2022/10/24 07:48:34;;;;;;;10.13;4.47;;;15.50;99.90;;;;;;5069631;28;20610;-65
2022/10/24 07:51:06;;;;;;;7.67;3.50;;;15.50;99.90;;;;;;5070811;28;20617;-65
2022/10/24 07:53:34;;;;;;;11.70;5.60;;;15.50;99.90;;;;;;5070947;28;20675;-65
2022/10/24 07:56:07;;;;;;;9.63;4.20;;;15.60;99.90;;;;;;5070242;28;20621;-65
2022/10/24 07:58:36;;;;;;;8.70;4.23;;;15.60;99.90;;;;;;5070937;28;20589;-65
2022/10/24 08:01:05;;;;;;;18.80;4.50;;;15.60;99.90;;;;;;5071016;28;20961;-66
2022/10/24 08:03:33;;;;;;;6.83;3.30;;;15.60;99.90;;;;;;5070646;28;20619;-66
2022/10/24 08:06:05;;;;;;;7.27;3.70;;;15.70;99.90;;;;;;5089391;28;20636;-66
2022/10/24 08:08:33;;;;;;;5.70;3.30;;;15.70;99.90;;;;;;5089344;28;20581;-66
2022/10/24 08:11:01;;;;;;;11.90;3.70;;;15.80;99.90;;;;;;5090578;28;20625;-65
2022/10/24 08:13:30;;;;;;;4.00;3.10;;;15.80;99.90;;;;;;5090613;28;20613;-66
2022/10/24 08:15:58;;;;;;;9.37;3.50;;;15.80;99.90;;;;;;5088707;28;21223;-66
2022/10/24 08:18:26;;;;;;;14.00;3.80;;;15.80;99.90;;;;;;5072456;28;20656;-66
2022/10/24 08:20:59;;;;;;;19.40;3.80;;;15.90;99.90;;;;;;5071943;28;20679;-65
2022/10/24 08:23:27;;;;;;;8.30;3.47;;;15.90;99.90;;;;;;5071880;28;20618;-65
2022/10/24 08:25:55;;;;;;;8.43;3.33;;;15.90;99.90;;;;;;5086254;28;20605;-65
2022/10/24 08:28:23;;;;;;;8.03;3.60;;;15.90;99.90;;;;;;5086135;28;20629;-65
2022/10/24 08:31:00;;;;;;;7.73;3.80;;;15.90;99.90;;;;;;5078798;28;20641;-66
2022/10/24 08:33:29;;;;;;;9.93;3.73;;;15.90;99.90;;;;;;5083149;28;20618;-65
2022/10/24 08:36:00;;;;;;;10.30;3.70;;;16.00;99.90;;;;;;5079081;28;20638;-65
2022/10/24 08:38:29;;;;;;;7.53;3.23;;;16.00;99.90;;;;;;5071975;28;20998;-65
2022/10/24 08:40:57;;;;;;;7.40;3.80;;;16.10;99.90;;;;;;5070668;28;21181;-65
2022/10/24 08:43:26;;;;;;;20.73;3.93;;;16.20;99.90;;;;;;5071783;28;20621;-65
2022/10/24 08:46:03;;;;;;;11.90;3.80;;;16.20;99.90;;;;;;5070360;28;20621;-66
2022/10/24 08:48:37;;;;;;;8.00;3.33;;;16.20;99.90;;;;;;5070239;28;20582;-65
2022/10/24 08:51:13;;;;;;;12.00;3.13;;;16.30;99.90;;;;;;5071072;28;20585;-65
2022/10/24 08:53:41;;;;;;;7.27;3.03;;;16.30;99.90;;;;;;5071150;28;20653;-66
2022/10/24 08:56:12;;;;;;;8.13;4.00;;;16.30;99.90;;;;;;5070740;28;20621;-65
2022/10/24 08:58:43;;;;;;;8.00;4.33;;;16.30;99.90;;;;;;5070648;28;21271;-64
2022/10/24 09:01:31;;;;;;;8.47;3.50;;;16.30;99.90;;;;;;5079674;28;20630;-64
2022/10/24 09:04:04;;;;;;;7.50;4.07;;;16.30;99.90;;;;;;5076313;28;20627;-65
2022/10/24 09:06:33;;;;;;;8.87;4.47;;;16.40;99.90;;;;;;5086395;28;20977;-66
2022/10/24 09:09:04;;;;;;;8.80;3.30;;;16.50;99.90;;;;;;5088326;28;20955;-65
2022/10/24 09:11:43;;;;;;;6.70;3.60;;;16.40;99.90;;;;;;5071199;28;20618;-66
2022/10/24 09:14:13;;;;;;;11.77;3.93;;;16.50;99.90;;;;;;5077978;28;20613;-65
2022/10/24 09:16:45;;;;;;;6.53;3.60;;;16.50;99.90;;;;;;5091242;28;20618;-65
2022/10/24 09:19:16;;;;;;;7.63;3.70;;;16.60;99.90;;;;;;5084606;28;20621;-65
2022/10/24 09:21:45;;;;;;;7.13;3.70;;;16.70;99.90;;;;;;5079343;28;20609;-66
2022/10/24 09:24:27;;;;;;;14.80;5.33;;;16.70;99.90;;;;;;5079825;28;21048;-65
2022/10/24 09:26:55;;;;;;;13.50;3.60;;;16.80;99.90;;;;;;5071108;28;20579;-65
2022/10/24 09:29:24;;;;;;;11.90;3.50;;;16.80;99.90;;;;;;5069518;28;20620;-65
2022/10/24 09:31:53;;;;;;;6.80;3.93;;;16.90;99.90;;;;;;5070970;28;20628;-65
2022/10/24 09:34:21;;;;;;;20.70;4.07;;;17.00;99.90;;;;;;5068714;28;20667;-66
2022/10/24 09:36:50;;;;;;;11.87;4.30;;;17.10;99.90;;;;;;5071141;28;21073;-66
2022/10/24 09:39:30;;;;;;;8.90;3.50;;;17.20;99.90;;;;;;5069866;28;20614;-66
2022/10/24 09:41:59;;;;;;;7.80;3.30;;;17.10;99.90;;;;;;5076029;28;20621;-66
2022/10/24 09:44:37;;;;;;;6.63;3.20;;;17.10;99.90;;;;;;5090208;28;20621;-66
2022/10/24 09:47:21;;;;;;;6.37;3.23;;;17.20;99.90;;;;;;5091181;28;20947;-66
2022/10/24 09:49:49;;;;;;;11.70;3.80;;;17.20;99.90;;;;;;5090851;28;20578;-66
2022/10/24 09:52:20;;;;;;;4.53;3.23;;;17.20;99.90;;;;;;5091260;28;20981;-67
2022/10/24 09:55:12;;;;;;;7.73;3.70;;;17.30;99.90;;;;;;5091212;28;20574;-66
2022/10/24 09:57:40;;;;;;;10.20;3.10;;;17.30;99.90;;;;;;5088860;28;20666;-67
2022/10/24 10:00:25;;;;;;;5.07;3.20;;;17.40;99.90;;;;;;5081874;28;20638;-66
2022/10/24 10:03:05;;;;;;;6.40;3.07;;;17.40;99.90;;;;;;5076279;28;20621;-67
2022/10/24 10:05:46;;;;;;;9.97;2.97;;;17.50;99.90;;;;;;5070967;28;20586;-67
2022/10/24 10:08:20;;;;;;;12.13;3.13;;;17.60;99.90;;;;;;5071044;28;20606;-67
2022/10/24 10:10:57;;;;;;;6.50;3.03;;;17.70;99.90;;;;;;5071986;28;20586;-67
2022/10/24 10:13:27;;;;;;;5.50;2.70;;;17.70;99.90;;;;;;5084661;28;20975;-68
2022/10/24 10:15:57;;;;;;;5.47;2.77;;;17.70;99.90;;;;;;5090691;28;20624;-67
2022/10/24 10:18:32;;;;;;;7.40;2.80;;;17.70;99.90;;;;;;5086302;28;20648;-68
2022/10/24 10:21:10;;;;;;;7.77;2.97;;;17.70;99.90;;;;;;5090786;28;20581;-68
2022/10/24 10:23:40;;;;;;;9.10;3.20;;;17.70;99.90;;;;;;5074400;28;20590;-68
2022/10/24 10:26:18;;;;;;;13.07;3.47;;;17.70;99.90;;;;;;5086674;28;20601;-67
2022/10/24 10:28:58;;;;;;;5.90;2.60;;;17.70;99.90;;;;;;5079457;28;20601;-67
2022/10/24 10:31:36;;;;;;;7.60;2.93;;;17.70;99.90;;;;;;5092897;28;20942;-67
2022/10/24 10:34:29;;;;;;;5.80;3.43;;;17.60;99.90;;;;;;5074686;28;20600;-67
2022/10/24 10:37:22;;;;;;;8.87;2.73;;;17.80;99.90;;;;;;5085545;28;20621;-68
2022/10/24 10:40:11;;;;;;;12.20;3.10;;;17.90;99.90;;;;;;5092729;28;20613;-67
2022/10/24 10:42:49;;;;;;;9.03;3.57;;;18.00;99.90;;;;;;5073897;28;20586;-68
2022/10/24 10:45:30;;;;;;;7.03;2.70;;;18.30;99.90;;;;;;5091076;28;20692;-68
2022/10/24 10:48:12;;;;;;;10.00;3.20;;;18.50;99.90;;;;;;5073169;28;20590;-67
2022/10/24 10:50:47;;;;;;;7.93;2.87;;;18.50;99.90;;;;;;5080160;28;21148;-68
2022/10/24 10:53:27;;;;;;;9.70;3.10;;;18.60;99.90;;;;;;5072745;28;20652;-67
2022/10/24 10:56:05;;;;;;;7.03;2.63;;;18.70;99.90;;;;;;5094208;28;20959;-67
2022/10/24 10:58:43;;;;;;;6.83;3.27;;;19.10;99.90;;;;;;5080950;28;20649;-67
2022/10/24 11:01:19;;;;;;;6.00;2.90;;;19.40;99.90;;;;;;5083093;28;20971;-68
2022/10/24 11:03:54;;;;;;;9.23;2.50;;;19.20;99.90;;;;;;5088146;28;20619;-68
2022/10/24 11:06:39;;;;;;;7.60;3.50;;;19.10;99.90;;;;;;5091334;28;20601;-67
2022/10/24 11:09:33;;;;;;;5.63;3.20;;;19.50;99.90;;;;;;5087185;28;20635;-68
2022/10/24 11:12:07;;;;;;;9.50;3.20;;;19.20;99.90;;;;;;5083767;28;20679;-67
2022/10/24 11:14:38;;;;;;;11.50;3.50;;;19.10;99.90;;;;;;5085984;28;20626;-68
2022/10/24 11:17:12;;;;;;;5.10;2.80;;;19.20;99.90;;;;;;5076028;28;20610;-68
2022/10/24 11:19:50;;;;;;;9.00;3.20;;;19.80;99.90;;;;;;5078684;28;20702;-67
2022/10/24 11:22:24;;;;;;;4.30;2.60;;;19.70;99.90;;;;;;5086273;28;20635;-69
2022/10/24 11:24:58;;;;;;;6.50;3.47;;;19.20;99.90;;;;;;5084422;28;20611;-67
2022/10/24 11:27:32;;;;;;;10.27;3.10;;;19.40;99.90;;;;;;5088312;28;20945;-66
2022/10/24 11:30:08;;;;;;;5.70;3.10;;;19.70;99.90;;;;;;5088696;28;20981;-67
2022/10/24 11:32:41;;;;;;;7.03;3.20;;;19.90;99.90;;;;;;5092551;28;20700;-67
2022/10/24 11:35:22;;;;;;;8.80;3.37;;;20.10;99.90;;;;;;5084070;28;20594;-67
2022/10/24 11:37:56;;;;;;;9.60;3.20;;;20.40;99.90;;;;;;5086764;28;21124;-67
2022/10/24 11:40:27;;;;;;;15.33;3.23;;;20.40;99.90;;;;;;5087881;28;20618;-69
2022/10/24 11:43:00;;;;;;;8.40;2.87;;;20.70;99.90;;;;;;5085006;28;20647;-68
2022/10/24 11:45:32;;;;;;;9.60;3.37;;;20.80;99.90;;;;;;5082256;28;21294;-67
2022/10/24 11:48:12;;;;;;;5.50;3.40;;;20.90;99.90;;;;;;5088171;28;20585;-67
2022/10/24 11:50:48;;;;;;;9.73;3.20;;;21.10;99.90;;;;;;5082602;28;20666;-67
2022/10/24 11:53:39;;;;;;;13.20;3.30;;;21.40;99.90;;;;;;5092262;28;20645;-68
2022/10/24 11:56:16;;;;;;;9.13;3.30;;;21.30;99.90;;;;;;5089191;28;20581;-67
2022/10/24 11:58:51;;;;;;;13.07;4.23;;;21.30;99.90;;;;;;5073663;28;20636;-67
2022/10/24 12:01:40;;;;;;;8.20;3.27;;;21.00;99.90;;;;;;5079798;28;20653;-67
2022/10/24 12:04:27;;;;;;;11.50;3.87;;;21.00;99.90;;;;;;5085983;28;20634;-67
2022/10/24 12:07:37;;;;;;;4.07;3.00;;;20.90;99.90;;;;;;5070199;28;20609;-67
2022/10/24 12:10:25;;;;;;;8.77;4.53;;;20.70;99.90;;;;;;5080990;28;21182;-67
2022/10/24 12:13:23;;;;;;;10.23;3.10;;;20.70;99.90;;;;;;5089298;28;20984;-67
2022/10/24 12:15:59;;;;;;;10.33;2.77;;;20.50;99.90;;;;;;5071958;28;20952;-65
2022/10/24 12:18:32;;;;;;;10.53;3.83;;;20.40;99.90;;;;;;5071795;28;21193;-65
2022/10/24 12:21:04;;;;;;;8.10;3.20;;;20.70;99.90;;;;;;5072084;28;20606;-65
2022/10/24 12:23:33;;;;;;;7.30;2.80;;;21.10;99.90;;;;;;5089745;28;20726;-65
2022/10/24 12:26:05;;;;;;;6.03;2.73;;;21.60;99.90;;;;;;5091312;28;20622;-66
2022/10/24 12:28:33;;;;;;;9.00;3.03;;;21.10;99.90;;;;;;5078168;28;20613;-65
2022/10/24 12:31:21;;;;;;;6.23;2.90;;;21.30;99.90;;;;;;5081284;28;20977;-65
2022/10/24 12:34:23;;;;;;;9.00;3.70;;;21.40;99.90;;;;;;5089385;28;20593;-66
2022/10/24 12:37:04;;;;;;;7.60;3.07;;;21.80;99.90;;;;;;5078035;28;21180;-66
2022/10/24 12:39:34;;;;;;;9.67;3.33;;;22.00;99.90;;;;;;5078868;28;20646;-65
2022/10/24 12:42:05;;;;;;;6.73;2.57;;;21.90;99.90;;;;;;5075740;28;20632;-65
2022/10/24 12:44:45;;;;;;;10.13;2.93;;;21.40;99.90;;;;;;5070140;28;20636;-65
2022/10/24 12:47:37;;;;;;;8.00;3.77;;;21.00;99.90;;;;;;5083003;28;20613;-65
2022/10/24 12:50:43;;;;;;;7.43;3.47;;;20.70;99.90;;;;;;5073582;28;21175;-65
2022/10/24 12:53:20;;;;;;;11.83;3.70;;;20.60;99.90;;;;;;5084742;28;20664;-65
2022/10/24 12:56:14;;;;;;;8.67;3.03;;;20.50;99.90;;;;;;5070532;28;20629;-66
2022/10/24 12:58:45;;;;;;;10.23;3.10;;;21.10;99.90;;;;;;5081698;28;20700;-66
2022/10/24 13:01:26;;;;;;;8.03;3.53;;;21.20;99.90;;;;;;5090969;28;20614;-65
2022/10/24 13:04:22;;;;;;;8.47;3.70;;;21.10;99.90;;;;;;5080761;28;20614;-65
2022/10/24 13:07:05;;;;;;;7.03;3.17;;;21.20;99.90;;;;;;5091850;28;20632;-68
2022/10/24 13:09:43;;;;;;;7.60;3.20;;;21.50;99.90;;;;;;5093278;28;20612;-65